sensor_id;sensor_type;location;lat;lon;timestamp;P1;durP1;ratioP1;P2;durP2;ratioP2
51810;SDS011;52468;40.116;18.296;2022-10-16T00:01:39;73.93;;;38.57;;
51810;SDS011;52468;40.116;18.296;2022-10-16T00:04:08;75.37;;;37.53;;
51810;SDS011;52468;40.116;18.296;2022-10-16T00:06:37;76.30;;;39.77;;
51810;SDS011;52468;40.116;18.296;2022-10-16T00:09:05;78.10;;;39.00;;
51810;SDS011;52468;40.116;18.296;2022-10-16T00:11:34;76.67;;;38.73;;
51810;SDS011;52468;40.116;18.296;2022-10-16T00:14:06;78.63;;;40.20;;
51810;SDS011;52468;40.116;18.296;2022-10-16T00:16:35;79.17;;;41.00;;
51810;SDS011;52468;40.116;18.296;2022-10-16T00:19:04;82.93;;;40.97;;
51810;SDS011;52468;40.116;18.296;2022-10-16T00:21:34;74.93;;;42.03;;
51810;SDS011;52468;40.116;18.296;2022-10-16T00:24:20;86.20;;;42.33;;
51810;SDS011;52468;40.116;18.296;2022-10-16T00:26:49;91.53;;;44.33;;
51810;SDS011;52468;40.116;18.296;2022-10-16T00:29:18;90.47;;;44.47;;
51810;SDS011;52468;40.116;18.296;2022-10-16T00:31:45;84.27;;;43.30;;
51810;SDS011;52468;40.116;18.296;2022-10-16T00:34:13;96.30;;;46.10;;
51810;SDS011;52468;40.116;18.296;2022-10-16T00:36:41;97.23;;;53.47;;
51810;SDS011;52468;40.116;18.296;2022-10-16T00:39:09;100.70;;;51.20;;
51810;SDS011;52468;40.116;18.296;2022-10-16T00:41:37;94.73;;;46.03;;
51810;SDS011;52468;40.116;18.296;2022-10-16T00:44:42;92.93;;;49.07;;
51810;SDS011;52468;40.116;18.296;2022-10-16T00:47:30;107.53;;;50.80;;
51810;SDS011;52468;40.116;18.296;2022-10-16T00:50:11;96.47;;;49.77;;
51810;SDS011;52468;40.116;18.296;2022-10-16T00:52:47;103.35;;;50.35;;
51810;SDS011;52468;40.116;18.296;2022-10-16T00:55:17;96.50;;;50.93;;
51810;SDS011;52468;40.116;18.296;2022-10-16T00:57:45;103.10;;;48.07;;
51810;SDS011;52468;40.116;18.296;2022-10-16T01:00:15;82.83;;;44.80;;
51810;SDS011;52468;40.116;18.296;2022-10-16T01:02:56;84.70;;;43.88;;
51810;SDS011;52468;40.116;18.296;2022-10-16T01:05:31;90.70;;;46.80;;
51810;SDS011;52468;40.116;18.296;2022-10-16T01:08:10;101.57;;;46.67;;
51810;SDS011;52468;40.116;18.296;2022-10-16T01:10:46;103.30;;;46.03;;
51810;SDS011;52468;40.116;18.296;2022-10-16T01:13:20;104.73;;;47.37;;
51810;SDS011;52468;40.116;18.296;2022-10-16T01:15:56;94.57;;;47.80;;
51810;SDS011;52468;40.116;18.296;2022-10-16T01:21:24;97.75;;;47.13;;
51810;SDS011;52468;40.116;18.296;2022-10-16T01:32:28;110.70;;;50.33;;
51810;SDS011;52468;40.116;18.296;2022-10-16T01:35:21;112.93;;;52.40;;
51810;SDS011;52468;40.116;18.296;2022-10-16T01:38:12;111.83;;;51.83;;
51810;SDS011;52468;40.116;18.296;2022-10-16T01:40:45;109.40;;;50.70;;
51810;SDS011;52468;40.116;18.296;2022-10-16T01:43:19;121.33;;;53.10;;
51810;SDS011;52468;40.116;18.296;2022-10-16T01:45:50;99.23;;;48.00;;
51810;SDS011;52468;40.116;18.296;2022-10-16T01:48:20;118.23;;;51.27;;
51810;SDS011;52468;40.116;18.296;2022-10-16T01:50:56;108.30;;;50.40;;
51810;SDS011;52468;40.116;18.296;2022-10-16T01:53:31;103.40;;;48.50;;
51810;SDS011;52468;40.116;18.296;2022-10-16T01:55:59;113.97;;;50.93;;
51810;SDS011;52468;40.116;18.296;2022-10-16T01:58:30;109.37;;;52.90;;
51810;SDS011;52468;40.116;18.296;2022-10-16T02:01:03;110.32;;;53.65;;
51810;SDS011;52468;40.116;18.296;2022-10-16T02:03:35;105.50;;;52.00;;
51810;SDS011;52468;40.116;18.296;2022-10-16T02:06:07;106.13;;;51.60;;
51810;SDS011;52468;40.116;18.296;2022-10-16T02:08:36;106.50;;;52.60;;
51810;SDS011;52468;40.116;18.296;2022-10-16T02:11:05;118.27;;;54.20;;
51810;SDS011;52468;40.116;18.296;2022-10-16T02:13:35;116.70;;;52.23;;
51810;SDS011;52468;40.116;18.296;2022-10-16T02:16:16;120.67;;;55.53;;
51810;SDS011;52468;40.116;18.296;2022-10-16T02:18:44;117.97;;;54.17;;
51810;SDS011;52468;40.116;18.296;2022-10-16T02:21:28;114.73;;;54.73;;
51810;SDS011;52468;40.116;18.296;2022-10-16T02:29:37;116.67;;;54.80;;
51810;SDS011;52468;40.116;18.296;2022-10-16T02:32:12;130.00;;;59.03;;
51810;SDS011;52468;40.116;18.296;2022-10-16T02:34:43;129.37;;;57.23;;
51810;SDS011;52468;40.116;18.296;2022-10-16T02:37:12;122.40;;;58.60;;
51810;SDS011;52468;40.116;18.296;2022-10-16T02:39:40;124.53;;;57.57;;
51810;SDS011;52468;40.116;18.296;2022-10-16T02:42:10;131.30;;;58.50;;
51810;SDS011;52468;40.116;18.296;2022-10-16T02:44:41;118.83;;;54.77;;
51810;SDS011;52468;40.116;18.296;2022-10-16T02:47:09;134.13;;;58.00;;
51810;SDS011;52468;40.116;18.296;2022-10-16T02:49:38;131.50;;;60.67;;
51810;SDS011;52468;40.116;18.296;2022-10-16T02:52:06;136.50;;;59.03;;
51810;SDS011;52468;40.116;18.296;2022-10-16T02:54:33;124.80;;;59.87;;
51810;SDS011;52468;40.116;18.296;2022-10-16T02:57:01;138.53;;;57.20;;
51810;SDS011;52468;40.116;18.296;2022-10-16T02:59:29;126.20;;;57.70;;
51810;SDS011;52468;40.116;18.296;2022-10-16T03:01:57;119.60;;;56.43;;
51810;SDS011;52468;40.116;18.296;2022-10-16T03:04:24;129.93;;;59.90;;
51810;SDS011;52468;40.116;18.296;2022-10-16T03:06:52;109.53;;;54.20;;
51810;SDS011;52468;40.116;18.296;2022-10-16T03:09:20;117.67;;;55.67;;
51810;SDS011;52468;40.116;18.296;2022-10-16T03:11:48;129.70;;;58.03;;
51810;SDS011;52468;40.116;18.296;2022-10-16T03:14:16;132.23;;;61.93;;
51810;SDS011;52468;40.116;18.296;2022-10-16T03:16:44;128.77;;;60.33;;
51810;SDS011;52468;40.116;18.296;2022-10-16T03:19:12;121.60;;;57.53;;
51810;SDS011;52468;40.116;18.296;2022-10-16T03:21:39;121.23;;;59.00;;
51810;SDS011;52468;40.116;18.296;2022-10-16T03:24:07;130.63;;;61.93;;
51810;SDS011;52468;40.116;18.296;2022-10-16T03:26:35;127.20;;;59.43;;
51810;SDS011;52468;40.116;18.296;2022-10-16T03:29:03;125.67;;;58.13;;
51810;SDS011;52468;40.116;18.296;2022-10-16T03:31:31;130.17;;;58.73;;
51810;SDS011;52468;40.116;18.296;2022-10-16T03:33:59;131.53;;;59.00;;
51810;SDS011;52468;40.116;18.296;2022-10-16T03:36:27;125.77;;;59.17;;
51810;SDS011;52468;40.116;18.296;2022-10-16T03:38:55;120.53;;;61.33;;
51810;SDS011;52468;40.116;18.296;2022-10-16T03:41:24;120.93;;;55.90;;
51810;SDS011;52468;40.116;18.296;2022-10-16T03:43:52;117.20;;;58.47;;
51810;SDS011;52468;40.116;18.296;2022-10-16T03:46:20;123.27;;;57.43;;
51810;SDS011;52468;40.116;18.296;2022-10-16T03:48:47;128.93;;;57.97;;
51810;SDS011;52468;40.116;18.296;2022-10-16T03:51:15;127.37;;;56.87;;
51810;SDS011;52468;40.116;18.296;2022-10-16T03:53:43;144.30;;;61.63;;
51810;SDS011;52468;40.116;18.296;2022-10-16T03:56:11;135.97;;;61.73;;
51810;SDS011;52468;40.116;18.296;2022-10-16T03:58:39;140.93;;;60.33;;
51810;SDS011;52468;40.116;18.296;2022-10-16T04:01:07;141.20;;;60.13;;
51810;SDS011;52468;40.116;18.296;2022-10-16T04:03:35;148.77;;;66.00;;
51810;SDS011;52468;40.116;18.296;2022-10-16T04:06:02;140.30;;;67.23;;
51810;SDS011;52468;40.116;18.296;2022-10-16T04:08:30;144.23;;;62.40;;
51810;SDS011;52468;40.116;18.296;2022-10-16T04:11:01;154.63;;;64.93;;
51810;SDS011;52468;40.116;18.296;2022-10-16T04:13:29;142.87;;;66.40;;
51810;SDS011;52468;40.116;18.296;2022-10-16T04:15:57;136.10;;;66.70;;
51810;SDS011;52468;40.116;18.296;2022-10-16T04:18:26;152.70;;;64.20;;
51810;SDS011;52468;40.116;18.296;2022-10-16T04:20:54;137.47;;;65.90;;
51810;SDS011;52468;40.116;18.296;2022-10-16T04:23:22;153.67;;;64.97;;
51810;SDS011;52468;40.116;18.296;2022-10-16T04:25:50;150.80;;;63.07;;
51810;SDS011;52468;40.116;18.296;2022-10-16T04:28:18;154.43;;;64.87;;
51810;SDS011;52468;40.116;18.296;2022-10-16T04:30:46;145.83;;;67.63;;
51810;SDS011;52468;40.116;18.296;2022-10-16T04:33:14;152.67;;;65.50;;
51810;SDS011;52468;40.116;18.296;2022-10-16T04:35:42;142.77;;;66.37;;
51810;SDS011;52468;40.116;18.296;2022-10-16T04:38:09;156.23;;;70.10;;
51810;SDS011;52468;40.116;18.296;2022-10-16T04:40:37;149.73;;;73.47;;
51810;SDS011;52468;40.116;18.296;2022-10-16T04:43:05;159.13;;;70.63;;
51810;SDS011;52468;40.116;18.296;2022-10-16T04:45:34;168.47;;;71.00;;
51810;SDS011;52468;40.116;18.296;2022-10-16T04:48:02;167.53;;;69.77;;
51810;SDS011;52468;40.116;18.296;2022-10-16T04:50:30;171.23;;;72.33;;
51810;SDS011;52468;40.116;18.296;2022-10-16T04:53:05;168.17;;;70.70;;
51810;SDS011;52468;40.116;18.296;2022-10-16T04:55:34;171.13;;;69.20;;
51810;SDS011;52468;40.116;18.296;2022-10-16T04:58:02;172.97;;;73.47;;
51810;SDS011;52468;40.116;18.296;2022-10-16T05:00:30;202.80;;;79.10;;
51810;SDS011;52468;40.116;18.296;2022-10-16T05:02:58;172.57;;;72.93;;
51810;SDS011;52468;40.116;18.296;2022-10-16T05:05:28;175.47;;;72.40;;
51810;SDS011;52468;40.116;18.296;2022-10-16T05:07:55;179.47;;;74.00;;
51810;SDS011;52468;40.116;18.296;2022-10-16T05:10:23;188.70;;;74.83;;
51810;SDS011;52468;40.116;18.296;2022-10-16T05:12:51;208.90;;;82.77;;
51810;SDS011;52468;40.116;18.296;2022-10-16T05:15:19;235.60;;;84.40;;
51810;SDS011;52468;40.116;18.296;2022-10-16T05:17:47;300.80;;;95.00;;
51810;SDS011;52468;40.116;18.296;2022-10-16T05:20:19;234.77;;;89.90;;
51810;SDS011;52468;40.116;18.296;2022-10-16T05:22:47;432.33;;;113.03;;
51810;SDS011;52468;40.116;18.296;2022-10-16T05:25:15;493.53;;;124.47;;
51810;SDS011;52468;40.116;18.296;2022-10-16T05:27:46;434.27;;;119.17;;
51810;SDS011;52468;40.116;18.296;2022-10-16T05:30:16;517.07;;;134.43;;
51810;SDS011;52468;40.116;18.296;2022-10-16T05:32:48;499.97;;;117.17;;
51810;SDS011;52468;40.116;18.296;2022-10-16T05:35:17;554.30;;;139.30;;
51810;SDS011;52468;40.116;18.296;2022-10-16T05:37:46;493.97;;;116.93;;
51810;SDS011;52468;40.116;18.296;2022-10-16T05:40:14;445.83;;;118.80;;
51810;SDS011;52468;40.116;18.296;2022-10-16T05:42:42;399.90;;;115.53;;
51810;SDS011;52468;40.116;18.296;2022-10-16T05:45:10;407.17;;;116.33;;
51810;SDS011;52468;40.116;18.296;2022-10-16T05:47:39;361.67;;;101.27;;
51810;SDS011;52468;40.116;18.296;2022-10-16T05:50:07;331.10;;;97.50;;
51810;SDS011;52468;40.116;18.296;2022-10-16T05:52:35;371.07;;;104.47;;
51810;SDS011;52468;40.116;18.296;2022-10-16T05:55:03;413.53;;;115.53;;
51810;SDS011;52468;40.116;18.296;2022-10-16T05:57:31;306.47;;;97.70;;
51810;SDS011;52468;40.116;18.296;2022-10-16T05:59:59;343.73;;;102.47;;
51810;SDS011;52468;40.116;18.296;2022-10-16T06:02:28;209.23;;;80.07;;
51810;SDS011;52468;40.116;18.296;2022-10-16T06:04:55;189.27;;;80.07;;
51810;SDS011;52468;40.116;18.296;2022-10-16T06:07:23;194.90;;;77.30;;
51810;SDS011;52468;40.116;18.296;2022-10-16T06:09:52;181.40;;;75.97;;
51810;SDS011;52468;40.116;18.296;2022-10-16T06:12:20;168.17;;;72.90;;
51810;SDS011;52468;40.116;18.296;2022-10-16T06:14:48;163.37;;;69.40;;
51810;SDS011;52468;40.116;18.296;2022-10-16T06:17:16;150.40;;;72.53;;
51810;SDS011;52468;40.116;18.296;2022-10-16T06:19:44;139.50;;;68.93;;
51810;SDS011;52468;40.116;18.296;2022-10-16T06:22:12;140.03;;;71.80;;
51810;SDS011;52468;40.116;18.296;2022-10-16T06:24:39;146.97;;;70.00;;
51810;SDS011;52468;40.116;18.296;2022-10-16T06:27:07;150.40;;;72.83;;
51810;SDS011;52468;40.116;18.296;2022-10-16T06:29:35;157.67;;;77.27;;
51810;SDS011;52468;40.116;18.296;2022-10-16T06:32:03;158.90;;;74.67;;
51810;SDS011;52468;40.116;18.296;2022-10-16T06:34:31;147.40;;;74.30;;
51810;SDS011;52468;40.116;18.296;2022-10-16T06:36:59;144.67;;;73.90;;
51810;SDS011;52468;40.116;18.296;2022-10-16T06:39:26;158.63;;;74.07;;
51810;SDS011;52468;40.116;18.296;2022-10-16T06:41:54;143.40;;;69.93;;
51810;SDS011;52468;40.116;18.296;2022-10-16T06:44:25;134.87;;;73.40;;
51810;SDS011;52468;40.116;18.296;2022-10-16T06:46:53;138.10;;;71.13;;
51810;SDS011;52468;40.116;18.296;2022-10-16T06:49:21;143.83;;;74.87;;
51810;SDS011;52468;40.116;18.296;2022-10-16T06:51:50;120.80;;;69.10;;
51810;SDS011;52468;40.116;18.296;2022-10-16T06:54:17;127.50;;;69.00;;
51810;SDS011;52468;40.116;18.296;2022-10-16T06:56:45;123.20;;;68.93;;
51810;SDS011;52468;40.116;18.296;2022-10-16T06:59:13;122.13;;;70.73;;
51810;SDS011;52468;40.116;18.296;2022-10-16T07:01:41;125.83;;;69.73;;
51810;SDS011;52468;40.116;18.296;2022-10-16T07:04:09;117.50;;;67.23;;
51810;SDS011;52468;40.116;18.296;2022-10-16T07:06:37;118.20;;;63.93;;
51810;SDS011;52468;40.116;18.296;2022-10-16T07:09:07;105.60;;;63.70;;
51810;SDS011;52468;40.116;18.296;2022-10-16T07:11:37;99.67;;;59.27;;
51810;SDS011;52468;40.116;18.296;2022-10-16T07:14:12;111.13;;;62.87;;
51810;SDS011;52468;40.116;18.296;2022-10-16T07:16:46;99.87;;;60.40;;
51810;SDS011;52468;40.116;18.296;2022-10-16T07:19:15;92.97;;;53.50;;
51810;SDS011;52468;40.116;18.296;2022-10-16T07:21:44;92.93;;;54.93;;
51810;SDS011;52468;40.116;18.296;2022-10-16T07:24:13;83.27;;;49.50;;
51810;SDS011;52468;40.116;18.296;2022-10-16T07:26:43;83.87;;;50.33;;
51810;SDS011;52468;40.116;18.296;2022-10-16T07:29:14;70.90;;;43.73;;
51810;SDS011;52468;40.116;18.296;2022-10-16T07:31:44;73.33;;;46.43;;
51810;SDS011;52468;40.116;18.296;2022-10-16T07:34:13;66.00;;;43.90;;
51810;SDS011;52468;40.116;18.296;2022-10-16T07:36:42;65.27;;;42.43;;
51810;SDS011;52468;40.116;18.296;2022-10-16T07:39:10;57.60;;;38.13;;
51810;SDS011;52468;40.116;18.296;2022-10-16T07:41:38;48.43;;;35.70;;
51810;SDS011;52468;40.116;18.296;2022-10-16T07:44:06;49.13;;;34.27;;
51810;SDS011;52468;40.116;18.296;2022-10-16T07:46:35;43.67;;;30.10;;
51810;SDS011;52468;40.116;18.296;2022-10-16T07:49:03;45.20;;;30.90;;
51810;SDS011;52468;40.116;18.296;2022-10-16T07:51:31;44.67;;;28.07;;
51810;SDS011;52468;40.116;18.296;2022-10-16T07:53:59;40.27;;;27.10;;
51810;SDS011;52468;40.116;18.296;2022-10-16T07:56:27;40.90;;;26.93;;
51810;SDS011;52468;40.116;18.296;2022-10-16T07:58:57;34.13;;;24.40;;
51810;SDS011;52468;40.116;18.296;2022-10-16T08:01:25;39.90;;;25.40;;
51810;SDS011;52468;40.116;18.296;2022-10-16T08:03:53;32.87;;;24.27;;
51810;SDS011;52468;40.116;18.296;2022-10-16T08:06:21;36.13;;;24.17;;
51810;SDS011;52468;40.116;18.296;2022-10-16T08:08:49;28.47;;;20.07;;
51810;SDS011;52468;40.116;18.296;2022-10-16T08:11:17;30.97;;;20.60;;
51810;SDS011;52468;40.116;18.296;2022-10-16T08:13:45;30.80;;;20.40;;
51810;SDS011;52468;40.116;18.296;2022-10-16T08:16:13;27.27;;;20.90;;
51810;SDS011;52468;40.116;18.296;2022-10-16T08:18:41;34.27;;;19.70;;
51810;SDS011;52468;40.116;18.296;2022-10-16T08:21:13;27.43;;;18.97;;
51810;SDS011;52468;40.116;18.296;2022-10-16T08:23:43;22.33;;;15.03;;
51810;SDS011;52468;40.116;18.296;2022-10-16T08:26:12;20.00;;;13.70;;
51810;SDS011;52468;40.116;18.296;2022-10-16T08:28:40;20.87;;;13.57;;
51810;SDS011;52468;40.116;18.296;2022-10-16T08:31:14;16.83;;;12.43;;
51810;SDS011;52468;40.116;18.296;2022-10-16T08:33:48;17.40;;;13.60;;
51810;SDS011;52468;40.116;18.296;2022-10-16T08:36:17;19.20;;;12.43;;
51810;SDS011;52468;40.116;18.296;2022-10-16T08:38:47;19.40;;;14.37;;
51810;SDS011;52468;40.116;18.296;2022-10-16T08:44:35;19.83;;;14.20;;
51810;SDS011;52468;40.116;18.296;2022-10-16T08:50:00;20.50;;;13.77;;
51810;SDS011;52468;40.116;18.296;2022-10-16T08:52:38;15.00;;;11.43;;
51810;SDS011;52468;40.116;18.296;2022-10-16T08:55:17;19.50;;;12.30;;
51810;SDS011;52468;40.116;18.296;2022-10-16T08:58:12;15.50;;;11.63;;
51810;SDS011;52468;40.116;18.296;2022-10-16T09:00:43;15.37;;;11.57;;
51810;SDS011;52468;40.116;18.296;2022-10-16T09:03:32;17.33;;;12.43;;
51810;SDS011;52468;40.116;18.296;2022-10-16T09:06:41;16.27;;;10.27;;
51810;SDS011;52468;40.116;18.296;2022-10-16T09:15:03;15.13;;;9.87;;
51810;SDS011;52468;40.116;18.296;2022-10-16T09:20:20;11.60;;;9.57;;
51810;SDS011;52468;40.116;18.296;2022-10-16T09:25:31;13.33;;;8.93;;
51810;SDS011;52468;40.116;18.296;2022-10-16T09:28:01;12.33;;;8.67;;
51810;SDS011;52468;40.116;18.296;2022-10-16T09:30:28;12.27;;;9.03;;
51810;SDS011;52468;40.116;18.296;2022-10-16T09:32:57;14.33;;;8.77;;
51810;SDS011;52468;40.116;18.296;2022-10-16T09:35:27;13.37;;;8.73;;
51810;SDS011;52468;40.116;18.296;2022-10-16T09:38:02;13.10;;;8.17;;
51810;SDS011;52468;40.116;18.296;2022-10-16T09:40:30;9.73;;;7.60;;
51810;SDS011;52468;40.116;18.296;2022-10-16T09:45:40;11.73;;;8.03;;
51810;SDS011;52468;40.116;18.296;2022-10-16T09:48:12;9.40;;;8.17;;
51810;SDS011;52468;40.116;18.296;2022-10-16T09:50:55;8.50;;;7.23;;
51810;SDS011;52468;40.116;18.296;2022-10-16T09:53:38;10.23;;;7.43;;
51810;SDS011;52468;40.116;18.296;2022-10-16T09:58:54;10.27;;;6.93;;
51810;SDS011;52468;40.116;18.296;2022-10-16T10:01:26;9.93;;;7.10;;
51810;SDS011;52468;40.116;18.296;2022-10-16T10:06:54;11.63;;;7.60;;
51810;SDS011;52468;40.116;18.296;2022-10-16T10:11:52;11.77;;;7.40;;
51810;SDS011;52468;40.116;18.296;2022-10-16T10:16:50;10.53;;;8.40;;
51810;SDS011;52468;40.116;18.296;2022-10-16T10:19:21;12.80;;;9.13;;
51810;SDS011;52468;40.116;18.296;2022-10-16T10:21:52;19.30;;;10.90;;
51810;SDS011;52468;40.116;18.296;2022-10-16T10:24:19;15.87;;;10.63;;
51810;SDS011;52468;40.116;18.296;2022-10-16T10:29:39;10.43;;;8.20;;
51810;SDS011;52468;40.116;18.296;2022-10-16T10:37:41;9.10;;;7.20;;
51810;SDS011;52468;40.116;18.296;2022-10-16T10:45:58;9.38;;;7.18;;
51810;SDS011;52468;40.116;18.296;2022-10-16T11:07:31;14.20;;;8.53;;
51810;SDS011;52468;40.116;18.296;2022-10-16T11:10:05;8.30;;;7.30;;
51810;SDS011;52468;40.116;18.296;2022-10-16T11:12:42;10.50;;;8.53;;
51810;SDS011;52468;40.116;18.296;2022-10-16T11:15:15;11.73;;;9.23;;
51810;SDS011;52468;40.116;18.296;2022-10-16T11:17:57;10.17;;;8.17;;
51810;SDS011;52468;40.116;18.296;2022-10-16T11:20:50;12.43;;;9.30;;
51810;SDS011;52468;40.116;18.296;2022-10-16T11:23:38;17.37;;;11.70;;
51810;SDS011;52468;40.116;18.296;2022-10-16T11:26:13;10.40;;;8.13;;
51810;SDS011;52468;40.116;18.296;2022-10-16T11:28:51;11.47;;;8.97;;
51810;SDS011;52468;40.116;18.296;2022-10-16T11:31:28;9.57;;;7.23;;
51810;SDS011;52468;40.116;18.296;2022-10-16T11:37:12;12.20;;;8.03;;
51810;SDS011;52468;40.116;18.296;2022-10-16T11:39:45;11.17;;;8.90;;
51810;SDS011;52468;40.116;18.296;2022-10-16T11:42:30;10.97;;;7.87;;
51810;SDS011;52468;40.116;18.296;2022-10-16T11:47:42;12.63;;;8.23;;
51810;SDS011;52468;40.116;18.296;2022-10-16T11:55:38;9.53;;;7.70;;
51810;SDS011;52468;40.116;18.296;2022-10-16T11:58:15;13.47;;;10.33;;
51810;SDS011;52468;40.116;18.296;2022-10-16T12:00:58;12.90;;;8.97;;
51810;SDS011;52468;40.116;18.296;2022-10-16T12:09:14;13.90;;;9.80;;
51810;SDS011;52468;40.116;18.296;2022-10-16T12:11:48;10.70;;;8.20;;
51810;SDS011;52468;40.116;18.296;2022-10-16T12:14:18;12.07;;;9.27;;
51810;SDS011;52468;40.116;18.296;2022-10-16T12:19:27;14.27;;;10.40;;
51810;SDS011;52468;40.116;18.296;2022-10-16T12:21:57;10.60;;;9.07;;
51810;SDS011;52468;40.116;18.296;2022-10-16T12:24:37;15.73;;;10.77;;
51810;SDS011;52468;40.116;18.296;2022-10-16T12:30:14;13.93;;;9.73;;
51810;SDS011;52468;40.116;18.296;2022-10-16T12:32:54;11.03;;;9.23;;
51810;SDS011;52468;40.116;18.296;2022-10-16T12:35:26;11.17;;;9.00;;
51810;SDS011;52468;40.116;18.296;2022-10-16T12:40:46;11.70;;;9.67;;
51810;SDS011;52468;40.116;18.296;2022-10-16T12:46:33;12.20;;;9.17;;
51810;SDS011;52468;40.116;18.296;2022-10-16T12:49:48;12.77;;;10.03;;
51810;SDS011;52468;40.116;18.296;2022-10-16T12:51:57;13.07;;;9.57;;
51810;SDS011;52468;40.116;18.296;2022-10-16T13:06:04;11.43;;;8.50;;
51810;SDS011;52468;40.116;18.296;2022-10-16T13:11:52;13.07;;;10.15;;
51810;SDS011;52468;40.116;18.296;2022-10-16T13:14:46;12.50;;;10.17;;
51810;SDS011;52468;40.116;18.296;2022-10-16T13:20:17;11.37;;;9.10;;
51810;SDS011;52468;40.116;18.296;2022-10-16T13:28:22;12.00;;;8.63;;
51810;SDS011;52468;40.116;18.296;2022-10-16T13:30:57;8.93;;;8.03;;
51810;SDS011;52468;40.116;18.296;2022-10-16T13:36:02;12.53;;;7.57;;
51810;SDS011;52468;40.116;18.296;2022-10-16T13:38:32;6.80;;;5.07;;
51810;SDS011;52468;40.116;18.296;2022-10-16T13:41:03;6.37;;;5.10;;
51810;SDS011;52468;40.116;18.296;2022-10-16T13:43:41;6.57;;;4.50;;
51810;SDS011;52468;40.116;18.296;2022-10-16T13:46:15;7.13;;;4.17;;
51810;SDS011;52468;40.116;18.296;2022-10-16T13:48:44;6.27;;;4.03;;
51810;SDS011;52468;40.116;18.296;2022-10-16T13:51:23;4.60;;;3.57;;
51810;SDS011;52468;40.116;18.296;2022-10-16T13:53:50;4.63;;;3.83;;
51810;SDS011;52468;40.116;18.296;2022-10-16T13:56:20;4.70;;;3.67;;
51810;SDS011;52468;40.116;18.296;2022-10-16T13:59:02;12.43;;;4.10;;
51810;SDS011;52468;40.116;18.296;2022-10-16T14:01:35;5.72;;;3.20;;
51810;SDS011;52468;40.116;18.296;2022-10-16T14:04:10;5.77;;;3.27;;
51810;SDS011;52468;40.116;18.296;2022-10-16T14:06:41;7.43;;;3.50;;
51810;SDS011;52468;40.116;18.296;2022-10-16T14:09:14;5.83;;;3.73;;
51810;SDS011;52468;40.116;18.296;2022-10-16T14:11:57;4.47;;;3.60;;
51810;SDS011;52468;40.116;18.296;2022-10-16T14:14:30;4.17;;;3.63;;
51810;SDS011;52468;40.116;18.296;2022-10-16T14:17:42;4.13;;;3.50;;
51810;SDS011;52468;40.116;18.296;2022-10-16T14:20:04;4.37;;;3.33;;
51810;SDS011;52468;40.116;18.296;2022-10-16T14:22:37;4.87;;;3.67;;
51810;SDS011;52468;40.116;18.296;2022-10-16T14:27:57;5.20;;;4.07;;
51810;SDS011;52468;40.116;18.296;2022-10-16T14:30:26;5.70;;;4.27;;
51810;SDS011;52468;40.116;18.296;2022-10-16T14:33:05;6.47;;;4.07;;
51810;SDS011;52468;40.116;18.296;2022-10-16T14:35:46;7.77;;;3.77;;
51810;SDS011;52468;40.116;18.296;2022-10-16T14:38:24;4.67;;;3.33;;
51810;SDS011;52468;40.116;18.296;2022-10-16T14:40:52;4.70;;;3.70;;
51810;SDS011;52468;40.116;18.296;2022-10-16T14:43:21;4.30;;;3.67;;
51810;SDS011;52468;40.116;18.296;2022-10-16T14:48:21;5.07;;;3.97;;
51810;SDS011;52468;40.116;18.296;2022-10-16T14:50:49;7.33;;;4.27;;
51810;SDS011;52468;40.116;18.296;2022-10-16T14:53:17;6.30;;;4.10;;
51810;SDS011;52468;40.116;18.296;2022-10-16T14:55:45;5.63;;;4.13;;
51810;SDS011;52468;40.116;18.296;2022-10-16T14:58:16;8.13;;;4.33;;
51810;SDS011;52468;40.116;18.296;2022-10-16T15:00:45;5.80;;;4.63;;
51810;SDS011;52468;40.116;18.296;2022-10-16T15:03:13;5.43;;;4.83;;
51810;SDS011;52468;40.116;18.296;2022-10-16T15:05:41;8.17;;;5.27;;
51810;SDS011;52468;40.116;18.296;2022-10-16T15:08:09;4.80;;;4.27;;
51810;SDS011;52468;40.116;18.296;2022-10-16T15:10:38;6.03;;;4.57;;
51810;SDS011;52468;40.116;18.296;2022-10-16T15:13:12;6.93;;;4.93;;
51810;SDS011;52468;40.116;18.296;2022-10-16T15:15:44;5.93;;;4.87;;
51810;SDS011;52468;40.116;18.296;2022-10-16T15:18:13;9.88;;;4.40;;
51810;SDS011;52468;40.116;18.296;2022-10-16T15:20:48;6.57;;;5.88;;
51810;SDS011;52468;40.116;18.296;2022-10-16T15:23:20;6.70;;;5.43;;
51810;SDS011;52468;40.116;18.296;2022-10-16T15:25:52;5.83;;;4.97;;
51810;SDS011;52468;40.116;18.296;2022-10-16T15:28:23;10.52;;;5.78;;
51810;SDS011;52468;40.116;18.296;2022-10-16T15:30:53;7.37;;;5.63;;
51810;SDS011;52468;40.116;18.296;2022-10-16T15:33:24;8.27;;;4.13;;
51810;SDS011;52468;40.116;18.296;2022-10-16T15:35:55;13.20;;;5.78;;
51810;SDS011;52468;40.116;18.296;2022-10-16T15:38:23;7.03;;;4.87;;
51810;SDS011;52468;40.116;18.296;2022-10-16T15:40:51;7.27;;;5.57;;
51810;SDS011;52468;40.116;18.296;2022-10-16T15:43:19;15.70;;;6.33;;
51810;SDS011;52468;40.116;18.296;2022-10-16T15:45:54;8.97;;;4.87;;
51810;SDS011;52468;40.116;18.296;2022-10-16T15:48:30;11.07;;;6.23;;
51810;SDS011;52468;40.116;18.296;2022-10-16T15:50:59;8.37;;;6.53;;
51810;SDS011;52468;40.116;18.296;2022-10-16T15:53:27;9.03;;;5.43;;
51810;SDS011;52468;40.116;18.296;2022-10-16T15:55:56;6.80;;;5.20;;
51810;SDS011;52468;40.116;18.296;2022-10-16T15:58:24;8.63;;;5.53;;
51810;SDS011;52468;40.116;18.296;2022-10-16T16:00:55;9.40;;;5.77;;
51810;SDS011;52468;40.116;18.296;2022-10-16T16:03:23;7.83;;;5.70;;
51810;SDS011;52468;40.116;18.296;2022-10-16T16:05:51;10.17;;;7.73;;
51810;SDS011;52468;40.116;18.296;2022-10-16T16:08:19;8.73;;;6.40;;
51810;SDS011;52468;40.116;18.296;2022-10-16T16:10:57;8.50;;;5.63;;
51810;SDS011;52468;40.116;18.296;2022-10-16T16:13:26;10.77;;;7.20;;
51810;SDS011;52468;40.116;18.296;2022-10-16T16:15:54;7.70;;;5.77;;
51810;SDS011;52468;40.116;18.296;2022-10-16T16:18:22;13.63;;;6.93;;
51810;SDS011;52468;40.116;18.296;2022-10-16T16:20:51;9.20;;;5.60;;
51810;SDS011;52468;40.116;18.296;2022-10-16T16:23:19;14.73;;;6.40;;
51810;SDS011;52468;40.116;18.296;2022-10-16T16:26:01;10.00;;;7.20;;
51810;SDS011;52468;40.116;18.296;2022-10-16T16:28:49;7.73;;;6.23;;
51810;SDS011;52468;40.116;18.296;2022-10-16T16:31:16;8.43;;;7.23;;
51810;SDS011;52468;40.116;18.296;2022-10-16T16:33:44;9.00;;;7.40;;
51810;SDS011;52468;40.116;18.296;2022-10-16T16:36:13;11.37;;;8.37;;
51810;SDS011;52468;40.116;18.296;2022-10-16T16:38:42;13.53;;;8.60;;
51810;SDS011;52468;40.116;18.296;2022-10-16T16:43:41;9.63;;;7.93;;
51810;SDS011;52468;40.116;18.296;2022-10-16T16:46:09;11.60;;;7.37;;
51810;SDS011;52468;40.116;18.296;2022-10-16T16:48:37;11.37;;;8.27;;
51810;SDS011;52468;40.116;18.296;2022-10-16T16:51:10;13.43;;;10.13;;
51810;SDS011;52468;40.116;18.296;2022-10-16T16:53:42;11.80;;;8.83;;
51810;SDS011;52468;40.116;18.296;2022-10-16T16:56:11;10.43;;;7.87;;
51810;SDS011;52468;40.116;18.296;2022-10-16T16:58:40;11.87;;;10.23;;